createdAt,value
2016-06-27T19:20:43.773Z,71.68
2016-06-27T19:21:14.384Z,71.39
2016-06-27T19:21:43.790Z,70.72
2016-06-27T19:22:13.194Z,69.94
2016-06-27T19:23:47.182Z,71.48
2016-06-27T19:24:17.199Z,70.72
2016-06-27T19:24:48.213Z,71.88
2016-06-27T19:26:15.633Z,70.72
2016-06-27T19:26:45.663Z,70.9
2016-06-27T19:27:15.661Z,72.55
2016-06-27T19:28:17.251Z,71.14
2016-06-27T19:28:47.856Z,71
2016-06-27T19:29:17.881Z,70.14
2016-06-27T19:29:47.289Z,70.14
2016-06-27T19:31:21.486Z,71.3
2016-06-27T19:32:25.363Z,70.23
2016-06-27T19:32:55.378Z,70
2016-06-27T19:33:25.374Z,72.22
2016-06-27T19:49:35.646Z,72.67
2016-06-27T19:50:05.654Z,72.67
2016-06-27T19:51:08.244Z,73.6
2016-06-27T19:51:38.251Z,74.02
2016-06-27T19:54:25.688Z,72.44
2016-06-27T19:54:55.126Z,73.14
2016-06-27T19:55:25.714Z,74.51
2016-06-27T19:55:55.756Z,77.26
2016-06-27T19:56:26.100Z,79.4
2016-06-27T19:56:55.772Z,81.76
2016-06-27T19:57:25.801Z,83.26
2016-06-27T19:57:55.217Z,85.14
2016-06-27T19:58:25.816Z,86.44
2016-06-27T19:58:55.838Z,88.45
2016-06-27T19:59:25.851Z,89.65
2016-06-27T19:59:55.895Z,91.38
2016-06-27T20:02:04.733Z,79.6
2016-06-27T20:03:04.730Z,75.92
2016-06-27T20:04:04.757Z,74.21
2016-06-27T20:05:04.789Z,72.71
2016-06-27T20:06:05.389Z,72.42
2016-06-27T20:06:55.488Z,70.97
2016-06-27T20:07:25.467Z,70.87
2016-06-27T20:07:55.484Z,72.32
2016-06-27T20:08:25.524Z,72.21
2016-06-27T20:08:55.526Z,73.3
2016-06-27T20:09:25.539Z,75.44
2016-06-27T20:09:55.579Z,78.25
2016-06-27T20:10:25.567Z,80.61
2016-06-27T20:10:55.595Z,83.07
2016-06-27T20:11:25.611Z,85.24
2016-06-27T20:11:55.622Z,86.82
2016-06-27T20:12:25.045Z,88.41
2016-06-27T20:12:55.647Z,89.94
2016-06-27T20:13:25.664Z,91.24
2016-06-27T20:13:55.695Z,92.87
2016-06-27T20:14:25.693Z,93.4
2016-06-27T20:14:55.706Z,93.3
2016-06-27T20:15:25.735Z,94.55
2016-06-27T20:15:55.767Z,95.12
2016-06-27T20:16:25.769Z,96.32
2016-06-27T20:16:55.776Z,96.89
2016-06-27T20:17:25.822Z,97.18
2016-06-27T20:17:55.817Z,97.85
2016-06-27T20:18:25.826Z,98.38
2016-06-27T20:18:54.628Z,98.57
2016-06-27T20:19:25.246Z,98.38
2016-06-27T20:19:55.870Z,98.66
2016-06-27T20:20:25.887Z,99.72
2016-06-27T20:20:55.330Z,99.52
2016-06-27T20:21:25.940Z,99.99
2016-06-27T20:21:55.922Z,99.99
2016-06-27T20:22:25.962Z,99.99
2016-06-27T20:22:55.986Z,99.99
2016-06-27T20:23:26.014Z,99.99
2016-06-27T20:23:55.982Z,99.99
2016-06-27T20:24:26.035Z,99.99
2016-06-27T20:24:56.027Z,99.99
2016-06-27T20:25:26.038Z,99.99
2016-06-27T20:25:56.039Z,99.99
2016-06-27T20:26:26.072Z,99.99
2016-06-27T20:26:55.525Z,99.99
2016-06-27T20:27:26.113Z,99.99
2016-06-27T20:27:56.101Z,99.99
2016-06-27T20:28:26.147Z,99.99
2016-06-27T20:28:56.142Z,99.99
2016-06-27T20:29:26.159Z,99.99
2016-06-27T20:29:56.163Z,99.99
2016-06-27T20:30:26.269Z,99.99
2016-06-27T20:30:56.228Z,99.99
2016-06-27T20:31:26.212Z,99.99
2016-06-27T20:31:56.245Z,99.99
2016-06-27T20:32:26.276Z,99.99
2016-06-27T20:32:55.671Z,99.99
2016-06-27T20:33:26.278Z,99.99
2016-06-27T20:33:56.291Z,99.99
2016-06-27T20:34:26.326Z,99.99
2016-06-27T20:34:56.378Z,99.99
2016-06-27T20:35:26.353Z,99.99
2016-06-27T20:35:56.370Z,99.99
2016-06-27T20:36:26.394Z,99.99
2016-06-27T20:36:56.374Z,99.99
2016-06-27T20:37:26.407Z,99.99
2016-06-27T20:37:55.860Z,99.99
2016-06-27T20:38:26.450Z,99.99
2016-06-27T20:38:56.476Z,99.99
2016-06-27T20:39:26.461Z,99.99
2016-06-27T20:39:56.480Z,99.99
2016-06-27T20:40:26.557Z,99.99
2016-06-27T20:40:56.521Z,99.99
2016-06-27T20:41:26.518Z,99.99
2016-06-27T20:41:56.547Z,99.99
2016-06-27T20:42:25.941Z,99.99
2016-06-27T20:42:56.624Z,99.99
2016-06-27T20:43:25.985Z,99.99
2016-06-27T20:43:56.629Z,99.99
2016-06-27T20:44:26.629Z,99.99
2016-06-27T20:44:56.637Z,99.99
2016-06-27T20:45:26.655Z,99.99
2016-06-27T20:45:55.495Z,99.99
2016-06-27T20:46:26.676Z,99.99
2016-06-27T20:46:56.691Z,99.99
2016-06-27T20:47:26.707Z,99.99
2016-06-27T20:47:56.747Z,99.99
2016-06-27T20:48:26.736Z,99.99
2016-06-27T20:48:56.776Z,99.99
2016-06-27T20:49:26.769Z,99.99
2016-06-27T20:49:56.788Z,99.99
2016-06-27T20:50:26.799Z,99.99
2016-06-27T20:50:56.824Z,99.99
2016-06-27T20:51:26.820Z,99.99
2016-06-27T20:51:56.853Z,99.99
2016-06-27T20:52:26.847Z,99.99
2016-06-27T20:52:56.567Z,99.99
2016-06-27T20:53:26.893Z,99.99
2016-06-27T20:53:56.894Z,99.99
2016-06-27T20:54:26.916Z,99.99
2016-06-27T20:54:56.941Z,99.99
2016-06-27T20:55:26.955Z,99.99
2016-06-27T20:55:56.972Z,99.99
2016-06-27T20:56:26.996Z,99.99
2016-06-27T20:56:57.001Z,99.99
2016-06-27T20:57:27.011Z,99.99
2016-06-27T20:57:57.043Z,99.99
2016-06-27T20:58:26.446Z,99.99
2016-06-27T20:58:57.086Z,99.99
2016-06-27T20:59:27.086Z,99.99
2016-06-27T20:59:57.088Z,99.99
2016-06-27T21:00:27.112Z,99.99
2016-06-27T21:00:57.123Z,99.99
2016-06-27T21:01:27.141Z,99.99
2016-06-27T21:01:57.150Z,99.99
2016-06-27T21:02:27.145Z,99.99
2016-06-27T21:02:57.214Z,99.99
2016-06-27T21:03:27.203Z,99.99
2016-06-27T21:03:57.211Z,99.99
2016-06-27T21:04:27.227Z,99.99
2016-06-27T21:04:57.303Z,99.99
2016-06-27T21:05:26.673Z,99.99
2016-06-27T21:05:57.282Z,99.99
2016-06-27T21:06:26.694Z,99.99
2016-06-27T21:06:57.305Z,99.99
2016-06-27T21:07:27.335Z,99.99
2016-06-27T21:07:57.344Z,99.99
2016-06-27T21:08:27.370Z,99.99
2016-06-27T21:08:57.358Z,99.99
2016-06-27T21:09:27.424Z,99.99
2016-06-27T21:09:57.423Z,99.99
2016-06-27T21:10:26.810Z,99.99
2016-06-27T21:10:57.418Z,99.99
2016-06-27T21:11:27.434Z,99.99
2016-06-27T21:11:57.449Z,99.99
2016-06-27T21:12:27.477Z,99.99
2016-06-27T21:12:57.473Z,99.99
2016-06-27T21:13:27.506Z,99.99
2016-06-27T21:13:57.539Z,99.99
2016-06-27T21:14:27.571Z,99.99
2016-06-27T21:14:57.545Z,99.99
2016-06-27T21:15:27.561Z,99.99
2016-06-27T21:15:57.573Z,99.99
2016-06-27T21:16:27.574Z,99.99
2016-06-27T21:16:57.608Z,99.99
2016-06-27T21:17:27.626Z,99.99
2016-06-27T21:17:57.629Z,99.99
2016-06-27T21:18:27.674Z,99.99
2016-06-27T21:18:57.052Z,99.99
2016-06-27T21:19:27.691Z,99.99
2016-06-27T21:19:57.692Z,99.99
2016-06-27T21:20:27.126Z,99.99
2016-06-27T21:20:57.717Z,99.99
2016-06-27T21:21:27.767Z,99.99
2016-06-27T21:21:57.754Z,99.99
2016-06-27T21:22:28.007Z,99.99
2016-06-27T21:22:57.791Z,99.99
2016-06-27T21:23:27.799Z,99.99
2016-06-27T21:23:57.815Z,99.99
2016-06-27T21:24:27.222Z,99.99
2016-06-27T21:24:57.842Z,99.99
2016-06-27T21:25:27.859Z,99.99
2016-06-27T21:25:57.876Z,99.99
2016-06-27T21:26:27.900Z,99.99
2016-06-27T21:26:57.911Z,99.99
2016-06-27T21:27:27.299Z,99.99
2016-06-27T21:27:57.957Z,99.99
2016-06-27T21:28:27.982Z,99.99
2016-06-27T21:28:57.955Z,99.99
2016-06-27T21:29:27.982Z,99.99
2016-06-27T21:29:58.015Z,99.99
2016-06-27T21:30:28.024Z,99.99
2016-06-27T21:30:58.028Z,99.99
2016-06-27T21:31:28.053Z,99.99
2016-06-27T21:31:58.054Z,99.99
2016-06-27T21:32:28.072Z,99.99
2016-06-27T21:32:58.064Z,99.99
2016-06-27T21:33:28.126Z,99.99
2016-06-27T21:33:56.903Z,99.99
2016-06-27T21:34:28.116Z,99.99
2016-06-27T21:34:58.141Z,99.99
2016-06-27T21:35:28.144Z,99.99
2016-06-27T21:35:58.191Z,99.99
2016-06-27T21:36:31.831Z,99.99
2016-06-27T21:37:01.983Z,99.99
2016-06-27T21:37:31.007Z,99.99
2016-06-27T21:38:00.541Z,99.99
2016-06-27T21:38:32.906Z,99.99
2016-06-27T21:39:01.077Z,99.99
2016-06-27T21:39:31.166Z,99.99
2016-06-27T21:39:58.384Z,99.99
2016-06-27T21:40:31.876Z,99.99
2016-06-27T21:41:02.221Z,99.99
2016-06-27T21:41:32.183Z,99.99
2016-06-27T21:41:59.752Z,99.99
2016-06-27T21:42:28.374Z,99.99
2016-06-27T21:42:58.414Z,99.99
2016-06-27T21:43:28.399Z,99.99
2016-06-27T21:43:58.408Z,99.99
2016-06-27T21:44:28.431Z,99.99
2016-06-27T21:44:58.449Z,99.99
2016-06-27T21:45:27.868Z,99.99
2016-06-27T21:45:58.475Z,99.99
2016-06-27T21:46:28.480Z,99.99
2016-06-27T21:46:58.497Z,99.99
2016-06-27T21:47:28.523Z,99.99
2016-06-27T21:47:58.524Z,99.99
2016-06-27T21:48:28.532Z,99.99
2016-06-27T21:48:58.562Z,99.99
2016-06-27T21:49:28.579Z,99.99
2016-06-27T21:49:58.592Z,99.99
2016-06-27T21:50:28.599Z,99.99
2016-06-27T21:50:58.607Z,99.99
2016-06-27T21:51:28.627Z,99.99
2016-06-27T21:51:58.651Z,99.99
2016-06-27T21:52:28.163Z,99.99
2016-06-27T21:52:58.702Z,99.99
2016-06-27T21:53:28.736Z,99.99
2016-06-27T21:53:58.701Z,99.99
2016-06-27T21:54:28.720Z,99.99
2016-06-27T21:54:58.747Z,99.99
2016-06-27T21:55:28.765Z,99.99
2016-06-27T21:55:58.163Z,99.99
2016-06-27T21:56:28.785Z,99.99
2016-06-27T21:56:58.815Z,99.99
2016-06-27T21:57:28.805Z,99.99
2016-06-27T21:57:58.824Z,99.99
2016-06-27T21:58:28.838Z,99.99
2016-06-27T21:58:58.876Z,99.99
2016-06-27T21:59:28.862Z,99.99
2016-06-27T21:59:58.899Z,99.99
2016-06-27T22:00:28.915Z,99.99
2016-06-27T22:00:58.913Z,99.99
2016-06-27T22:01:28.921Z,99.99
2016-06-27T22:01:58.345Z,99.99
2016-06-27T22:02:28.963Z,99.99
2016-06-27T22:02:58.978Z,99.99
2016-06-27T22:03:28.984Z,99.99
2016-06-27T22:03:59.031Z,99.99
2016-06-27T22:04:29.003Z,99.99
2016-06-27T22:04:59.025Z,99.99
2016-06-27T22:05:29.068Z,99.99
2016-06-27T22:05:59.090Z,99.99
2016-06-27T22:06:28.478Z,99.99
2016-06-27T22:06:59.091Z,99.99
2016-06-27T22:07:29.137Z,99.99
2016-06-27T22:07:59.124Z,99.99
2016-06-27T22:08:29.144Z,99.99
2016-06-27T22:08:59.145Z,99.99
2016-06-27T22:09:29.161Z,99.99
2016-06-27T22:09:59.221Z,99.99
2016-06-27T22:10:29.199Z,99.99
2016-06-27T22:10:59.204Z,99.99
2016-06-27T22:11:29.240Z,99.99
2016-06-27T22:11:59.238Z,99.99
2016-06-27T22:12:29.277Z,99.99
2016-06-27T22:12:59.269Z,99.99
2016-06-27T22:13:29.287Z,99.99
2016-06-27T22:13:59.281Z,99.99
2016-06-27T22:14:29.351Z,99.99
2016-06-27T22:14:59.330Z,99.99
2016-06-27T22:15:29.326Z,99.99
2016-06-27T22:15:59.371Z,99.99
2016-06-27T22:16:29.371Z,99.99
2016-06-27T22:16:59.438Z,99.99
2016-06-27T22:17:29.410Z,99.99
2016-06-27T22:17:59.403Z,99.99
2016-06-27T22:18:29.441Z,99.99
2016-06-27T22:18:59.439Z,99.99
2016-06-27T22:19:29.473Z,99.99
2016-06-27T22:19:59.487Z,99.99
2016-06-27T22:20:29.486Z,99.99
2016-06-27T22:20:59.519Z,99.99
2016-06-27T22:21:29.536Z,99.99
2016-06-27T22:21:59.528Z,99.99
2016-06-27T22:22:29.574Z,99.99
2016-06-27T22:22:59.592Z,99.99
2016-06-27T22:23:29.571Z,99.99
2016-06-27T22:23:59.604Z,99.99
2016-06-27T22:24:29.613Z,99.99
2016-06-27T22:24:59.628Z,99.99
2016-06-27T22:25:29.641Z,99.99
2016-06-27T22:25:59.681Z,99.99
2016-06-27T22:26:29.681Z,99.99
2016-06-27T22:26:59.675Z,99.99
2016-06-27T22:27:29.718Z,99.99
2016-06-27T22:27:59.720Z,99.99
2016-06-27T22:28:29.748Z,99.99
2016-06-27T22:28:59.747Z,99.99
2016-06-27T22:29:29.777Z,99.99
2016-06-27T22:29:59.794Z,99.99
2016-06-27T22:30:29.801Z,99.99
2016-06-27T22:30:59.851Z,99.99
2016-06-27T22:31:29.285Z,99.99
2016-06-27T22:31:59.844Z,99.99
2016-06-27T22:32:29.286Z,99.99
2016-06-27T22:32:59.843Z,99.99
2016-06-27T22:33:29.281Z,99.99
2016-06-27T22:33:59.910Z,99.99
2016-06-27T22:34:29.914Z,99.99
2016-06-27T22:34:59.907Z,99.99
2016-06-27T22:35:29.929Z,99.99
2016-06-27T22:35:59.986Z,99.99
2016-06-27T22:36:29.970Z,99.99
2016-06-27T22:36:59.977Z,99.99
2016-06-27T22:37:29.997Z,99.99
2016-06-27T22:38:00.016Z,99.99
2016-06-27T22:38:30.023Z,99.99
2016-06-27T22:39:00.047Z,99.99
2016-06-27T22:39:30.062Z,99.99
2016-06-27T22:40:00.066Z,99.99
2016-06-27T22:40:30.097Z,99.99
2016-06-27T22:41:00.091Z,99.99
2016-06-27T22:41:30.125Z,99.99
2016-06-27T22:42:00.135Z,99.99
2016-06-27T22:42:30.142Z,99.99
2016-06-27T22:43:00.153Z,99.99
2016-06-27T22:43:30.177Z,99.99
2016-06-27T22:44:00.220Z,99.99
2016-06-27T22:44:30.218Z,99.99
2016-06-27T22:45:00.227Z,99.99
2016-06-27T22:45:30.411Z,99.99
2016-06-27T22:46:00.247Z,99.99
2016-06-27T22:46:30.303Z,99.99
2016-06-27T22:47:00.402Z,99.99
2016-06-27T22:47:30.311Z,99.99
2016-06-27T22:48:00.327Z,99.99
2016-06-27T22:48:30.334Z,99.99
2016-06-27T22:49:00.339Z,99.99
2016-06-27T22:49:30.370Z,99.99
2016-06-27T22:50:00.368Z,99.99
2016-06-27T22:50:30.400Z,99.99
2016-06-27T22:51:00.399Z,99.99
2016-06-27T22:51:30.402Z,99.99
2016-06-27T22:52:00.431Z,99.99
2016-06-27T22:52:30.453Z,99.99
2016-06-27T22:53:00.455Z,99.99
2016-06-27T22:53:30.473Z,99.99
2016-06-27T22:54:00.479Z,99.99
2016-06-27T22:54:30.492Z,99.99
2016-06-27T22:55:00.513Z,99.99
2016-06-27T22:55:30.522Z,99.99
2016-06-27T22:56:00.548Z,99.99
2016-06-27T22:56:30.565Z,99.99
2016-06-27T22:56:59.951Z,99.99
2016-06-27T22:57:30.578Z,99.99
2016-06-27T22:58:00.607Z,99.99
2016-06-27T22:58:30.825Z,99.99
2016-06-27T22:59:00.638Z,99.99
2016-06-27T22:59:30.668Z,99.99
2016-06-27T23:00:00.651Z,99.99
2016-06-27T23:00:30.686Z,99.99
2016-06-27T23:01:00.685Z,99.99
2016-06-27T23:01:30.697Z,99.99
2016-06-27T23:02:00.725Z,99.99
2016-06-27T23:02:30.736Z,99.99
2016-06-27T23:03:00.730Z,99.99
2016-06-27T23:03:30.146Z,99.99
2016-06-27T23:04:00.786Z,99.99
2016-06-27T23:04:30.788Z,99.99
2016-06-27T23:05:00.792Z,99.99
2016-06-27T23:05:30.819Z,99.99
2016-06-27T23:06:00.851Z,99.99
2016-06-27T23:06:30.869Z,99.99
2016-06-27T23:07:00.859Z,99.99
2016-06-27T23:07:30.287Z,99.99
2016-06-27T23:08:00.896Z,99.99
2016-06-27T23:08:30.310Z,99.99
2016-06-27T23:09:00.918Z,99.99
2016-06-27T23:09:30.935Z,99.99
2016-06-27T23:10:00.959Z,99.99
2016-06-27T23:10:30.970Z,99.99
2016-06-27T23:11:00.993Z,99.99
2016-06-27T23:11:30.999Z,99.99
2016-06-27T23:12:01.000Z,99.99
2016-06-27T23:12:31.026Z,99.99
2016-06-27T23:13:01.076Z,99.99
2016-06-27T23:13:31.052Z,99.99
2016-06-27T23:14:01.108Z,99.99
2016-06-27T23:14:31.102Z,99.99
2016-06-27T23:15:01.093Z,99.99
2016-06-27T23:15:31.130Z,99.99
2016-06-27T23:16:01.119Z,99.99
2016-06-27T23:16:31.173Z,99.99
2016-06-27T23:17:01.184Z,99.99
2016-06-27T23:17:31.159Z,99.99
2016-06-27T23:18:01.190Z,99.99
2016-06-27T23:18:31.183Z,99.99
2016-06-27T23:19:01.250Z,99.99
2016-06-27T23:19:31.241Z,99.99
2016-06-27T23:20:01.269Z,99.99
2016-06-27T23:20:31.261Z,99.99
2016-06-27T23:21:01.299Z,99.99
2016-06-27T23:21:31.281Z,99.99
2016-06-27T23:22:01.303Z,99.99
2016-06-27T23:22:31.321Z,99.99
2016-06-27T23:23:01.338Z,99.99
2016-06-27T23:23:31.350Z,99.99
2016-06-27T23:24:01.358Z,99.99
2016-06-27T23:24:31.380Z,99.99
2016-06-27T23:25:01.379Z,99.99
2016-06-27T23:25:31.403Z,99.99
2016-06-27T23:26:01.420Z,99.99
2016-06-27T23:26:31.441Z,99.99
2016-06-27T23:27:01.482Z,99.99
2016-06-27T23:27:31.492Z,99.99
2016-06-27T23:28:01.479Z,99.99
2016-06-27T23:28:31.506Z,99.99
2016-06-27T23:29:01.510Z,99.99
2016-06-27T23:29:31.530Z,99.99
2016-06-27T23:30:01.548Z,99.99
2016-06-27T23:30:31.559Z,99.99
2016-06-27T23:31:01.570Z,99.99
2016-06-27T23:31:31.573Z,99.99
2016-06-27T23:32:01.607Z,99.99
2016-06-27T23:32:31.611Z,99.99
2016-06-27T23:33:01.616Z,99.99
2016-06-27T23:33:31.636Z,99.99
2016-06-27T23:34:01.647Z,99.99
2016-06-27T23:34:31.682Z,99.99
2016-06-27T23:35:01.653Z,99.99
2016-06-27T23:35:31.705Z,99.99
2016-06-27T23:36:01.726Z,99.99
2016-06-27T23:36:31.718Z,99.99
2016-06-27T23:37:01.776Z,99.99
2016-06-27T23:37:31.778Z,99.99
2016-06-27T23:38:01.775Z,99.99
2016-06-27T23:38:31.777Z,99.99
2016-06-27T23:39:01.791Z,99.99
2016-06-27T23:39:31.817Z,99.99
2016-06-27T23:40:01.857Z,99.99
2016-06-27T23:40:31.844Z,99.99
2016-06-27T23:41:01.862Z,99.99
2016-06-27T23:41:31.861Z,99.99
2016-06-27T23:42:01.886Z,99.99
2016-06-27T23:42:31.914Z,99.99
2016-06-27T23:43:01.906Z,99.99
2016-06-27T23:43:31.922Z,99.99
2016-06-27T23:44:01.974Z,99.99
2016-06-27T23:44:31.955Z,99.99
2016-06-27T23:45:02.009Z,99.99
2016-06-27T23:45:31.983Z,99.99
2016-06-27T23:46:02.052Z,99.99
2016-06-27T23:46:32.015Z,99.99
2016-06-27T23:47:02.025Z,99.99
2016-06-27T23:47:32.064Z,99.99
2016-06-27T23:48:02.062Z,99.99
2016-06-27T23:48:32.091Z,99.99
2016-06-27T23:49:02.108Z,99.99
2016-06-27T23:49:32.111Z,99.99
2016-06-27T23:50:02.135Z,99.99
2016-06-27T23:50:32.132Z,99.99
2016-06-27T23:51:02.138Z,99.99
2016-06-27T23:51:32.155Z,99.99
2016-06-27T23:52:02.192Z,99.99
2016-06-27T23:52:32.204Z,99.99
2016-06-27T23:53:02.228Z,99.99
2016-06-27T23:53:32.246Z,99.99
2016-06-27T23:54:02.242Z,99.99
2016-06-27T23:54:32.247Z,99.99
2016-06-27T23:55:02.286Z,99.99
2016-06-27T23:55:32.281Z,99.99
2016-06-27T23:56:02.311Z,99.99
2016-06-27T23:56:32.306Z,99.99
2016-06-27T23:57:02.358Z,99.99
2016-06-27T23:57:32.351Z,99.99
2016-06-27T23:58:02.352Z,99.99
2016-06-27T23:58:32.377Z,99.99
2016-06-27T23:59:02.383Z,99.99
2016-06-27T23:59:32.402Z,99.99
